sensor_id;sensor_type;location;lat;lon;timestamp;temperature;humidity
24260;DHT22;12384;48.112;18.418;2023-11-21T00:00:35;5.80;99.90
24260;DHT22;12384;48.112;18.418;2023-11-21T00:03:04;5.80;99.90
24260;DHT22;12384;48.112;18.418;2023-11-21T00:05:35;5.80;99.90
24260;DHT22;12384;48.112;18.418;2023-11-21T00:08:04;5.80;99.90
24260;DHT22;12384;48.112;18.418;2023-11-21T00:10:32;5.80;99.90
24260;DHT22;12384;48.112;18.418;2023-11-21T00:13:01;5.80;99.90
24260;DHT22;12384;48.112;18.418;2023-11-21T00:15:30;5.80;99.90
24260;DHT22;12384;48.112;18.418;2023-11-21T00:17:59;5.70;99.90
24260;DHT22;12384;48.112;18.418;2023-11-21T00:20:28;5.70;99.90
24260;DHT22;12384;48.112;18.418;2023-11-21T00:22:58;5.70;99.90
24260;DHT22;12384;48.112;18.418;2023-11-21T00:25:26;5.60;99.90
24260;DHT22;12384;48.112;18.418;2023-11-21T00:27:55;5.60;99.90
24260;DHT22;12384;48.112;18.418;2023-11-21T00:30:23;5.50;99.90
24260;DHT22;12384;48.112;18.418;2023-11-21T00:32:52;5.50;99.90
24260;DHT22;12384;48.112;18.418;2023-11-21T00:35:20;5.40;99.80
24260;DHT22;12384;48.112;18.418;2023-11-21T00:37:49;5.40;99.70
24260;DHT22;12384;48.112;18.418;2023-11-21T00:40:19;5.30;99.60
24260;DHT22;12384;48.112;18.418;2023-11-21T00:42:48;5.30;99.60
24260;DHT22;12384;48.112;18.418;2023-11-21T00:45:17;5.20;99.60
24260;DHT22;12384;48.112;18.418;2023-11-21T00:47:46;5.20;99.50
24260;DHT22;12384;48.112;18.418;2023-11-21T00:50:14;5.10;99.60
24260;DHT22;12384;48.112;18.418;2023-11-21T00:52:43;5.10;99.80
24260;DHT22;12384;48.112;18.418;2023-11-21T00:55:12;5.10;99.90
24260;DHT22;12384;48.112;18.418;2023-11-21T00:57:42;5.10;99.90
24260;DHT22;12384;48.112;18.418;2023-11-21T01:00:12;5.10;99.90
24260;DHT22;12384;48.112;18.418;2023-11-21T01:02:44;5.10;99.90
24260;DHT22;12384;48.112;18.418;2023-11-21T01:05:14;5.10;99.90
24260;DHT22;12384;48.112;18.418;2023-11-21T01:07:42;5.10;99.90
24260;DHT22;12384;48.112;18.418;2023-11-21T01:10:11;5.10;99.90
24260;DHT22;12384;48.112;18.418;2023-11-21T01:12:41;5.10;99.90
24260;DHT22;12384;48.112;18.418;2023-11-21T01:15:10;5.20;99.90
24260;DHT22;12384;48.112;18.418;2023-11-21T01:17:39;5.20;99.90
24260;DHT22;12384;48.112;18.418;2023-11-21T01:20:09;5.30;99.90
24260;DHT22;12384;48.112;18.418;2023-11-21T01:22:41;5.30;99.90
24260;DHT22;12384;48.112;18.418;2023-11-21T01:25:10;5.30;99.90
24260;DHT22;12384;48.112;18.418;2023-11-21T01:27:43;5.40;99.90
24260;DHT22;12384;48.112;18.418;2023-11-21T01:30:13;5.40;99.90
24260;DHT22;12384;48.112;18.418;2023-11-21T01:32:43;5.40;99.90
24260;DHT22;12384;48.112;18.418;2023-11-21T01:35:12;5.40;99.90
24260;DHT22;12384;48.112;18.418;2023-11-21T01:37:40;5.40;99.90
24260;DHT22;12384;48.112;18.418;2023-11-21T01:40:10;5.40;99.90
24260;DHT22;12384;48.112;18.418;2023-11-21T01:42:43;5.30;99.90
24260;DHT22;12384;48.112;18.418;2023-11-21T01:45:14;5.30;99.90
24260;DHT22;12384;48.112;18.418;2023-11-21T01:47:44;5.30;99.90
24260;DHT22;12384;48.112;18.418;2023-11-21T01:50:15;5.20;99.90
24260;DHT22;12384;48.112;18.418;2023-11-21T01:52:46;5.30;99.90
24260;DHT22;12384;48.112;18.418;2023-11-21T01:55:17;5.20;99.90
24260;DHT22;12384;48.112;18.418;2023-11-21T01:57:52;5.20;99.90
24260;DHT22;12384;48.112;18.418;2023-11-21T02:00:21;5.20;99.90
24260;DHT22;12384;48.112;18.418;2023-11-21T02:02:51;5.20;99.90
24260;DHT22;12384;48.112;18.418;2023-11-21T02:05:20;5.20;99.90
24260;DHT22;12384;48.112;18.418;2023-11-21T02:07:49;5.20;99.90
24260;DHT22;12384;48.112;18.418;2023-11-21T02:10:20;5.10;99.90
24260;DHT22;12384;48.112;18.418;2023-11-21T02:12:53;5.10;99.90
24260;DHT22;12384;48.112;18.418;2023-11-21T02:15:23;5.10;99.90
24260;DHT22;12384;48.112;18.418;2023-11-21T02:17:56;5.10;99.90
24260;DHT22;12384;48.112;18.418;2023-11-21T02:20:27;5.10;99.90
24260;DHT22;12384;48.112;18.418;2023-11-21T02:22:58;5.10;99.90
24260;DHT22;12384;48.112;18.418;2023-11-21T02:25:28;5.00;99.90
24260;DHT22;12384;48.112;18.418;2023-11-21T02:27:58;5.10;99.90
24260;DHT22;12384;48.112;18.418;2023-11-21T02:30:28;5.00;99.90
24260;DHT22;12384;48.112;18.418;2023-11-21T02:32:59;5.00;99.90
24260;DHT22;12384;48.112;18.418;2023-11-21T02:35:28;5.00;99.90
24260;DHT22;12384;48.112;18.418;2023-11-21T02:38:00;5.00;99.90
24260;DHT22;12384;48.112;18.418;2023-11-21T02:40:30;5.00;99.90
24260;DHT22;12384;48.112;18.418;2023-11-21T02:42:58;5.00;99.90
24260;DHT22;12384;48.112;18.418;2023-11-21T02:45:27;4.90;99.90
24260;DHT22;12384;48.112;18.418;2023-11-21T02:47:56;4.90;99.90
24260;DHT22;12384;48.112;18.418;2023-11-21T02:50:25;4.90;99.90
24260;DHT22;12384;48.112;18.418;2023-11-21T02:52:55;4.90;99.90
24260;DHT22;12384;48.112;18.418;2023-11-21T02:55:28;4.90;99.90
24260;DHT22;12384;48.112;18.418;2023-11-21T02:57:58;4.80;99.90
24260;DHT22;12384;48.112;18.418;2023-11-21T03:00:27;4.80;99.90
24260;DHT22;12384;48.112;18.418;2023-11-21T03:02:56;4.80;99.90
24260;DHT22;12384;48.112;18.418;2023-11-21T03:05:25;4.80;99.90
24260;DHT22;12384;48.112;18.418;2023-11-21T03:07:56;4.70;99.90
24260;DHT22;12384;48.112;18.418;2023-11-21T03:10:25;4.70;99.90
24260;DHT22;12384;48.112;18.418;2023-11-21T03:12:56;4.70;99.90
24260;DHT22;12384;48.112;18.418;2023-11-21T03:15:25;4.60;99.90
24260;DHT22;12384;48.112;18.418;2023-11-21T03:17:54;4.60;99.90
24260;DHT22;12384;48.112;18.418;2023-11-21T03:20:23;4.60;99.90
24260;DHT22;12384;48.112;18.418;2023-11-21T03:22:53;4.50;99.90
24260;DHT22;12384;48.112;18.418;2023-11-21T03:25:21;4.50;99.90
24260;DHT22;12384;48.112;18.418;2023-11-21T03:27:51;4.50;99.90
24260;DHT22;12384;48.112;18.418;2023-11-21T03:30:22;4.50;99.90
24260;DHT22;12384;48.112;18.418;2023-11-21T03:32:50;4.50;99.90
24260;DHT22;12384;48.112;18.418;2023-11-21T03:35:20;4.40;99.90
24260;DHT22;12384;48.112;18.418;2023-11-21T03:37:49;4.40;99.90
24260;DHT22;12384;48.112;18.418;2023-11-21T03:40:17;4.40;99.90
24260;DHT22;12384;48.112;18.418;2023-11-21T03:42:47;4.40;99.90
24260;DHT22;12384;48.112;18.418;2023-11-21T03:45:16;4.40;99.90
24260;DHT22;12384;48.112;18.418;2023-11-21T03:47:47;4.40;99.90
24260;DHT22;12384;48.112;18.418;2023-11-21T03:50:15;4.40;99.90
24260;DHT22;12384;48.112;18.418;2023-11-21T03:52:44;4.50;99.90
24260;DHT22;12384;48.112;18.418;2023-11-21T03:55:13;4.50;99.90
24260;DHT22;12384;48.112;18.418;2023-11-21T03:57:42;4.50;99.90
24260;DHT22;12384;48.112;18.418;2023-11-21T04:00:11;4.50;99.90
24260;DHT22;12384;48.112;18.418;2023-11-21T04:02:40;4.40;99.90
24260;DHT22;12384;48.112;18.418;2023-11-21T04:05:10;4.40;99.90
24260;DHT22;12384;48.112;18.418;2023-11-21T04:07:39;4.40;99.90
24260;DHT22;12384;48.112;18.418;2023-11-21T04:10:09;4.40;99.90
24260;DHT22;12384;48.112;18.418;2023-11-21T04:12:40;4.40;99.90
24260;DHT22;12384;48.112;18.418;2023-11-21T04:15:09;4.40;99.90
24260;DHT22;12384;48.112;18.418;2023-11-21T04:17:38;4.50;99.90
24260;DHT22;12384;48.112;18.418;2023-11-21T04:20:07;4.50;99.90
24260;DHT22;12384;48.112;18.418;2023-11-21T04:22:39;4.50;99.90
24260;DHT22;12384;48.112;18.418;2023-11-21T04:25:13;4.50;99.90
24260;DHT22;12384;48.112;18.418;2023-11-21T04:27:43;4.60;99.90
24260;DHT22;12384;48.112;18.418;2023-11-21T04:30:13;4.60;99.90
24260;DHT22;12384;48.112;18.418;2023-11-21T04:32:42;4.60;99.90
24260;DHT22;12384;48.112;18.418;2023-11-21T04:35:10;4.60;99.90
24260;DHT22;12384;48.112;18.418;2023-11-21T04:37:40;4.60;99.90
24260;DHT22;12384;48.112;18.418;2023-11-21T04:40:10;4.60;99.90
24260;DHT22;12384;48.112;18.418;2023-11-21T04:42:38;4.60;99.90
24260;DHT22;12384;48.112;18.418;2023-11-21T04:45:08;4.60;99.90
24260;DHT22;12384;48.112;18.418;2023-11-21T04:47:39;4.60;99.90
24260;DHT22;12384;48.112;18.418;2023-11-21T04:50:08;4.60;99.90
24260;DHT22;12384;48.112;18.418;2023-11-21T04:52:37;4.60;99.90
24260;DHT22;12384;48.112;18.418;2023-11-21T04:55:07;4.60;99.90
24260;DHT22;12384;48.112;18.418;2023-11-21T04:57:38;4.60;99.90
24260;DHT22;12384;48.112;18.418;2023-11-21T05:00:09;4.60;99.90
24260;DHT22;12384;48.112;18.418;2023-11-21T05:02:39;4.60;99.90
24260;DHT22;12384;48.112;18.418;2023-11-21T05:05:09;4.60;99.90
24260;DHT22;12384;48.112;18.418;2023-11-21T05:07:38;4.60;99.90
24260;DHT22;12384;48.112;18.418;2023-11-21T05:10:09;4.60;99.90
24260;DHT22;12384;48.112;18.418;2023-11-21T05:12:40;4.60;99.90
24260;DHT22;12384;48.112;18.418;2023-11-21T05:15:10;4.60;99.90
24260;DHT22;12384;48.112;18.418;2023-11-21T05:17:42;4.70;99.90
24260;DHT22;12384;48.112;18.418;2023-11-21T05:20:12;4.70;99.90
24260;DHT22;12384;48.112;18.418;2023-11-21T05:22:45;4.70;99.90
24260;DHT22;12384;48.112;18.418;2023-11-21T05:25:15;4.80;99.90
24260;DHT22;12384;48.112;18.418;2023-11-21T05:27:45;4.80;99.90
24260;DHT22;12384;48.112;18.418;2023-11-21T05:30:14;4.80;99.90
24260;DHT22;12384;48.112;18.418;2023-11-21T05:32:42;4.90;99.90
24260;DHT22;12384;48.112;18.418;2023-11-21T05:35:12;5.00;99.90
24260;DHT22;12384;48.112;18.418;2023-11-21T05:37:44;4.90;99.90
24260;DHT22;12384;48.112;18.418;2023-11-21T05:40:15;5.00;99.90
24260;DHT22;12384;48.112;18.418;2023-11-21T05:42:44;5.00;99.90
24260;DHT22;12384;48.112;18.418;2023-11-21T05:45:13;5.00;99.90
24260;DHT22;12384;48.112;18.418;2023-11-21T05:47:44;5.00;99.90
24260;DHT22;12384;48.112;18.418;2023-11-21T05:50:15;5.00;99.90
24260;DHT22;12384;48.112;18.418;2023-11-21T05:52:45;5.00;99.90
24260;DHT22;12384;48.112;18.418;2023-11-21T05:55:15;5.00;99.90
24260;DHT22;12384;48.112;18.418;2023-11-21T05:57:44;4.90;99.90
24260;DHT22;12384;48.112;18.418;2023-11-21T06:00:14;5.00;99.90
24260;DHT22;12384;48.112;18.418;2023-11-21T06:02:48;4.90;99.90
24260;DHT22;12384;48.112;18.418;2023-11-21T06:05:22;4.90;99.90
24260;DHT22;12384;48.112;18.418;2023-11-21T06:07:53;4.90;99.90
24260;DHT22;12384;48.112;18.418;2023-11-21T06:10:23;4.80;99.90
24260;DHT22;12384;48.112;18.418;2023-11-21T06:12:53;4.80;99.90
24260;DHT22;12384;48.112;18.418;2023-11-21T06:15:21;4.80;99.90
24260;DHT22;12384;48.112;18.418;2023-11-21T06:17:51;4.80;99.90
24260;DHT22;12384;48.112;18.418;2023-11-21T06:20:21;4.80;99.90
24260;DHT22;12384;48.112;18.418;2023-11-21T06:22:50;4.80;99.90
24260;DHT22;12384;48.112;18.418;2023-11-21T06:25:20;4.80;99.90
24260;DHT22;12384;48.112;18.418;2023-11-21T06:27:50;4.80;99.90
24260;DHT22;12384;48.112;18.418;2023-11-21T06:30:21;4.80;99.90
24260;DHT22;12384;48.112;18.418;2023-11-21T06:32:50;4.80;99.90
24260;DHT22;12384;48.112;18.418;2023-11-21T06:35:21;4.80;99.90
24260;DHT22;12384;48.112;18.418;2023-11-21T06:37:49;4.80;99.90
24260;DHT22;12384;48.112;18.418;2023-11-21T06:40:19;4.80;99.90
24260;DHT22;12384;48.112;18.418;2023-11-21T06:42:50;4.70;99.90
24260;DHT22;12384;48.112;18.418;2023-11-21T06:45:18;4.70;99.90
24260;DHT22;12384;48.112;18.418;2023-11-21T06:47:49;4.70;99.90
24260;DHT22;12384;48.112;18.418;2023-11-21T06:50:18;4.70;99.90
24260;DHT22;12384;48.112;18.418;2023-11-21T06:52:46;4.70;99.90
24260;DHT22;12384;48.112;18.418;2023-11-21T06:55:16;4.70;99.90
24260;DHT22;12384;48.112;18.418;2023-11-21T06:57:44;4.70;99.90
24260;DHT22;12384;48.112;18.418;2023-11-21T07:00:17;4.70;99.90
24260;DHT22;12384;48.112;18.418;2023-11-21T07:02:46;4.80;99.90
24260;DHT22;12384;48.112;18.418;2023-11-21T07:05:15;4.80;99.90
24260;DHT22;12384;48.112;18.418;2023-11-21T07:07:48;4.80;99.90
24260;DHT22;12384;48.112;18.418;2023-11-21T07:10:18;4.90;99.90
24260;DHT22;12384;48.112;18.418;2023-11-21T07:12:46;4.90;99.90
24260;DHT22;12384;48.112;18.418;2023-11-21T07:15:16;5.00;99.90
24260;DHT22;12384;48.112;18.418;2023-11-21T07:17:46;5.00;99.90
24260;DHT22;12384;48.112;18.418;2023-11-21T07:20:16;5.00;99.90
24260;DHT22;12384;48.112;18.418;2023-11-21T07:22:45;5.00;99.90
24260;DHT22;12384;48.112;18.418;2023-11-21T07:25:14;5.10;99.90
24260;DHT22;12384;48.112;18.418;2023-11-21T07:27:42;5.10;99.90
24260;DHT22;12384;48.112;18.418;2023-11-21T07:30:12;5.10;99.90
24260;DHT22;12384;48.112;18.418;2023-11-21T07:32:42;5.20;99.90
24260;DHT22;12384;48.112;18.418;2023-11-21T07:35:12;5.30;99.90
24260;DHT22;12384;48.112;18.418;2023-11-21T07:37:40;5.40;99.90
24260;DHT22;12384;48.112;18.418;2023-11-21T07:40:10;5.50;99.90
24260;DHT22;12384;48.112;18.418;2023-11-21T07:42:40;5.60;99.90
24260;DHT22;12384;48.112;18.418;2023-11-21T07:45:10;5.60;99.90
24260;DHT22;12384;48.112;18.418;2023-11-21T07:47:39;5.70;99.90
24260;DHT22;12384;48.112;18.418;2023-11-21T07:50:11;5.70;99.90
24260;DHT22;12384;48.112;18.418;2023-11-21T07:52:41;5.80;99.90
24260;DHT22;12384;48.112;18.418;2023-11-21T07:55:09;5.80;99.90
24260;DHT22;12384;48.112;18.418;2023-11-21T07:57:38;5.90;99.90
24260;DHT22;12384;48.112;18.418;2023-11-21T08:00:08;5.90;99.90
24260;DHT22;12384;48.112;18.418;2023-11-21T08:02:39;5.90;99.90
24260;DHT22;12384;48.112;18.418;2023-11-21T08:05:11;6.00;99.90
24260;DHT22;12384;48.112;18.418;2023-11-21T08:07:51;6.10;99.90
24260;DHT22;12384;48.112;18.418;2023-11-21T08:10:20;6.20;99.90
24260;DHT22;12384;48.112;18.418;2023-11-21T08:12:49;6.20;99.90
24260;DHT22;12384;48.112;18.418;2023-11-21T08:15:18;6.30;99.90
24260;DHT22;12384;48.112;18.418;2023-11-21T08:17:47;6.30;99.90
24260;DHT22;12384;48.112;18.418;2023-11-21T08:20:17;6.40;99.90
24260;DHT22;12384;48.112;18.418;2023-11-21T08:22:46;6.50;99.90
24260;DHT22;12384;48.112;18.418;2023-11-21T08:25:16;6.60;99.90
24260;DHT22;12384;48.112;18.418;2023-11-21T08:27:47;6.60;99.90
24260;DHT22;12384;48.112;18.418;2023-11-21T08:30:16;6.70;99.90
24260;DHT22;12384;48.112;18.418;2023-11-21T08:32:46;6.80;99.90
24260;DHT22;12384;48.112;18.418;2023-11-21T08:35:16;7.00;99.90
24260;DHT22;12384;48.112;18.418;2023-11-21T08:37:45;7.00;99.90
24260;DHT22;12384;48.112;18.418;2023-11-21T08:40:14;7.20;99.90
24260;DHT22;12384;48.112;18.418;2023-11-21T08:42:45;7.30;99.90
24260;DHT22;12384;48.112;18.418;2023-11-21T08:45:14;7.30;99.90
24260;DHT22;12384;48.112;18.418;2023-11-21T08:47:45;7.40;99.90
24260;DHT22;12384;48.112;18.418;2023-11-21T08:50:14;7.50;99.90
24260;DHT22;12384;48.112;18.418;2023-11-21T08:52:44;7.60;99.90
24260;DHT22;12384;48.112;18.418;2023-11-21T08:55:14;7.60;99.90
24260;DHT22;12384;48.112;18.418;2023-11-21T08:57:44;7.70;99.90
24260;DHT22;12384;48.112;18.418;2023-11-21T09:00:14;7.80;99.90
24260;DHT22;12384;48.112;18.418;2023-11-21T09:02:44;7.90;99.90
24260;DHT22;12384;48.112;18.418;2023-11-21T09:05:14;8.00;99.90
24260;DHT22;12384;48.112;18.418;2023-11-21T09:07:44;8.10;99.90
24260;DHT22;12384;48.112;18.418;2023-11-21T09:10:16;8.20;99.90
24260;DHT22;12384;48.112;18.418;2023-11-21T09:12:45;8.30;99.90
24260;DHT22;12384;48.112;18.418;2023-11-21T09:15:14;8.40;99.90
24260;DHT22;12384;48.112;18.418;2023-11-21T09:17:42;8.50;99.90
24260;DHT22;12384;48.112;18.418;2023-11-21T09:20:12;8.60;99.90
24260;DHT22;12384;48.112;18.418;2023-11-21T09:22:43;8.80;99.90
24260;DHT22;12384;48.112;18.418;2023-11-21T09:25:13;8.90;99.90
24260;DHT22;12384;48.112;18.418;2023-11-21T09:27:42;9.00;99.90
24260;DHT22;12384;48.112;18.418;2023-11-21T09:30:12;9.10;99.90
24260;DHT22;12384;48.112;18.418;2023-11-21T09:32:41;9.10;99.90
24260;DHT22;12384;48.112;18.418;2023-11-21T09:35:13;9.20;99.90
24260;DHT22;12384;48.112;18.418;2023-11-21T09:37:44;9.20;99.90
24260;DHT22;12384;48.112;18.418;2023-11-21T09:40:21;9.30;99.90
24260;DHT22;12384;48.112;18.418;2023-11-21T09:42:55;9.30;99.90
24260;DHT22;12384;48.112;18.418;2023-11-21T09:45:28;9.40;99.90
24260;DHT22;12384;48.112;18.418;2023-11-21T09:47:58;9.50;99.90
24260;DHT22;12384;48.112;18.418;2023-11-21T09:50:27;9.60;99.90
24260;DHT22;12384;48.112;18.418;2023-11-21T09:53:11;9.70;99.90
24260;DHT22;12384;48.112;18.418;2023-11-21T09:55:43;9.80;99.90
24260;DHT22;12384;48.112;18.418;2023-11-21T09:58:13;10.00;99.90
24260;DHT22;12384;48.112;18.418;2023-11-21T10:00:43;10.20;99.90
24260;DHT22;12384;48.112;18.418;2023-11-21T10:03:11;10.40;99.90
24260;DHT22;12384;48.112;18.418;2023-11-21T10:05:42;10.80;99.90
24260;DHT22;12384;48.112;18.418;2023-11-21T10:08:14;11.10;99.90
24260;DHT22;12384;48.112;18.418;2023-11-21T10:10:44;11.40;99.90
24260;DHT22;12384;48.112;18.418;2023-11-21T10:13:13;11.70;99.90
24260;DHT22;12384;48.112;18.418;2023-11-21T10:15:48;11.80;99.90
24260;DHT22;12384;48.112;18.418;2023-11-21T10:18:17;12.00;99.90
24260;DHT22;12384;48.112;18.418;2023-11-21T10:20:46;12.20;99.00
24260;DHT22;12384;48.112;18.418;2023-11-21T10:23:22;12.30;97.30
24260;DHT22;12384;48.112;18.418;2023-11-21T10:25:52;12.50;95.90
24260;DHT22;12384;48.112;18.418;2023-11-21T10:28:24;12.60;94.40
24260;DHT22;12384;48.112;18.418;2023-11-21T10:30:53;12.60;93.30
24260;DHT22;12384;48.112;18.418;2023-11-21T10:33:27;12.70;91.30
24260;DHT22;12384;48.112;18.418;2023-11-21T10:35:57;12.70;89.80
24260;DHT22;12384;48.112;18.418;2023-11-21T10:38:28;12.70;87.00
24260;DHT22;12384;48.112;18.418;2023-11-21T10:40:57;12.60;84.50
24260;DHT22;12384;48.112;18.418;2023-11-21T10:43:27;12.60;83.40
24260;DHT22;12384;48.112;18.418;2023-11-21T10:45:58;12.50;81.50
24260;DHT22;12384;48.112;18.418;2023-11-21T10:48:27;12.40;80.30
24260;DHT22;12384;48.112;18.418;2023-11-21T10:50:56;12.40;79.10
24260;DHT22;12384;48.112;18.418;2023-11-21T10:53:30;12.30;78.70
24260;DHT22;12384;48.112;18.418;2023-11-21T10:56:02;12.30;78.10
24260;DHT22;12384;48.112;18.418;2023-11-21T10:58:35;12.20;77.90
24260;DHT22;12384;48.112;18.418;2023-11-21T11:01:06;12.20;77.90
24260;DHT22;12384;48.112;18.418;2023-11-21T11:03:39;12.20;77.60
24260;DHT22;12384;48.112;18.418;2023-11-21T11:06:08;12.40;77.60
24260;DHT22;12384;48.112;18.418;2023-11-21T11:08:40;12.50;77.40
24260;DHT22;12384;48.112;18.418;2023-11-21T11:11:10;12.70;76.20
24260;DHT22;12384;48.112;18.418;2023-11-21T11:13:43;12.90;75.40
24260;DHT22;12384;48.112;18.418;2023-11-21T11:16:14;13.10;74.60
24260;DHT22;12384;48.112;18.418;2023-11-21T11:18:45;13.30;74.30
24260;DHT22;12384;48.112;18.418;2023-11-21T11:21:35;13.60;73.50
24260;DHT22;12384;48.112;18.418;2023-11-21T11:27:09;14.60;69.70
24260;DHT22;12384;48.112;18.418;2023-11-21T11:32:38;15.70;66.70
24260;DHT22;12384;48.112;18.418;2023-11-21T11:35:17;16.30;65.70
24260;DHT22;12384;48.112;18.418;2023-11-21T11:37:46;16.80;64.00
24260;DHT22;12384;48.112;18.418;2023-11-21T11:40:16;17.20;62.20
24260;DHT22;12384;48.112;18.418;2023-11-21T11:42:56;17.60;62.20
24260;DHT22;12384;48.112;18.418;2023-11-21T11:45:32;18.00;59.70
24260;DHT22;12384;48.112;18.418;2023-11-21T11:48:01;18.20;58.60
24260;DHT22;12384;48.112;18.418;2023-11-21T11:50:31;18.40;57.90
24260;DHT22;12384;48.112;18.418;2023-11-21T11:53:13;18.50;57.30
24260;DHT22;12384;48.112;18.418;2023-11-21T11:55:43;18.60;57.50
24260;DHT22;12384;48.112;18.418;2023-11-21T11:58:12;18.70;57.50
24260;DHT22;12384;48.112;18.418;2023-11-21T12:00:42;18.80;57.10
24260;DHT22;12384;48.112;18.418;2023-11-21T12:03:13;18.80;56.20
24260;DHT22;12384;48.112;18.418;2023-11-21T12:05:42;18.80;55.20
24260;DHT22;12384;48.112;18.418;2023-11-21T12:08:12;18.80;55.20
24260;DHT22;12384;48.112;18.418;2023-11-21T12:10:43;18.80;55.20
24260;DHT22;12384;48.112;18.418;2023-11-21T12:13:12;18.80;54.80
24260;DHT22;12384;48.112;18.418;2023-11-21T12:15:40;18.80;53.60
24260;DHT22;12384;48.112;18.418;2023-11-21T12:18:09;18.70;54.10
24260;DHT22;12384;48.112;18.418;2023-11-21T12:20:38;18.60;53.50
24260;DHT22;12384;48.112;18.418;2023-11-21T12:23:08;18.70;52.80
24260;DHT22;12384;48.112;18.418;2023-11-21T12:25:38;18.70;52.80
24260;DHT22;12384;48.112;18.418;2023-11-21T12:28:10;18.70;52.60
24260;DHT22;12384;48.112;18.418;2023-11-21T12:30:39;18.70;52.20
24260;DHT22;12384;48.112;18.418;2023-11-21T12:33:08;18.60;52.10
24260;DHT22;12384;48.112;18.418;2023-11-21T12:35:38;18.60;51.80
24260;DHT22;12384;48.112;18.418;2023-11-21T12:38:06;18.70;51.60
24260;DHT22;12384;48.112;18.418;2023-11-21T12:40:36;18.90;51.90
24260;DHT22;12384;48.112;18.418;2023-11-21T12:43:07;19.10;51.40
24260;DHT22;12384;48.112;18.418;2023-11-21T12:45:38;19.50;50.40
24260;DHT22;12384;48.112;18.418;2023-11-21T12:48:06;19.90;51.90
24260;DHT22;12384;48.112;18.418;2023-11-21T12:50:39;20.30;49.70
24260;DHT22;12384;48.112;18.418;2023-11-21T12:53:10;20.80;50.20
24260;DHT22;12384;48.112;18.418;2023-11-21T12:55:40;21.30;49.60
24260;DHT22;12384;48.112;18.418;2023-11-21T12:58:10;21.80;48.60
24260;DHT22;12384;48.112;18.418;2023-11-21T13:00:44;22.30;48.20
24260;DHT22;12384;48.112;18.418;2023-11-21T13:03:14;22.60;47.00
24260;DHT22;12384;48.112;18.418;2023-11-21T13:05:46;23.00;46.50
24260;DHT22;12384;48.112;18.418;2023-11-21T13:08:20;23.30;45.70
24260;DHT22;12384;48.112;18.418;2023-11-21T13:10:51;23.60;45.50
24260;DHT22;12384;48.112;18.418;2023-11-21T13:13:23;23.70;45.20
24260;DHT22;12384;48.112;18.418;2023-11-21T13:15:55;23.70;44.70
24260;DHT22;12384;48.112;18.418;2023-11-21T13:18:24;23.50;44.60
24260;DHT22;12384;48.112;18.418;2023-11-21T13:20:55;23.30;44.50
24260;DHT22;12384;48.112;18.418;2023-11-21T13:23:24;22.90;44.10
24260;DHT22;12384;48.112;18.418;2023-11-21T13:25:52;22.50;44.10
24260;DHT22;12384;48.112;18.418;2023-11-21T13:28:31;22.20;44.30
24260;DHT22;12384;48.112;18.418;2023-11-21T13:31:03;21.90;44.10
24260;DHT22;12384;48.112;18.418;2023-11-21T13:33:38;21.50;43.90
24260;DHT22;12384;48.112;18.418;2023-11-21T13:36:08;21.40;44.10
24260;DHT22;12384;48.112;18.418;2023-11-21T13:38:38;21.20;43.70
24260;DHT22;12384;48.112;18.418;2023-11-21T13:41:10;20.80;43.60
24260;DHT22;12384;48.112;18.418;2023-11-21T13:43:41;20.30;43.40
24260;DHT22;12384;48.112;18.418;2023-11-21T13:46:16;19.70;43.30
24260;DHT22;12384;48.112;18.418;2023-11-21T13:48:50;19.10;43.50
24260;DHT22;12384;48.112;18.418;2023-11-21T13:51:24;18.40;43.70
24260;DHT22;12384;48.112;18.418;2023-11-21T13:54:04;17.80;44.00
24260;DHT22;12384;48.112;18.418;2023-11-21T13:56:37;17.20;44.40
24260;DHT22;12384;48.112;18.418;2023-11-21T13:59:07;16.60;44.70
24260;DHT22;12384;48.112;18.418;2023-11-21T14:01:47;16.10;45.00
24260;DHT22;12384;48.112;18.418;2023-11-21T14:04:25;15.60;45.50
24260;DHT22;12384;48.112;18.418;2023-11-21T14:07:14;15.10;46.10
24260;DHT22;12384;48.112;18.418;2023-11-21T14:09:53;14.60;46.60
24260;DHT22;12384;48.112;18.418;2023-11-21T14:12:23;14.20;47.00
24260;DHT22;12384;48.112;18.418;2023-11-21T14:14:51;13.90;47.40
24260;DHT22;12384;48.112;18.418;2023-11-21T14:17:23;13.50;47.80
24260;DHT22;12384;48.112;18.418;2023-11-21T14:19:52;13.20;48.10
24260;DHT22;12384;48.112;18.418;2023-11-21T14:22:23;12.90;48.30
24260;DHT22;12384;48.112;18.418;2023-11-21T14:24:53;12.70;48.50
24260;DHT22;12384;48.112;18.418;2023-11-21T14:27:26;12.40;48.80
24260;DHT22;12384;48.112;18.418;2023-11-21T14:29:54;12.20;49.10
24260;DHT22;12384;48.112;18.418;2023-11-21T14:32:25;11.90;49.20
24260;DHT22;12384;48.112;18.418;2023-11-21T14:34:54;11.70;49.50
24260;DHT22;12384;48.112;18.418;2023-11-21T14:37:23;11.50;49.70
24260;DHT22;12384;48.112;18.418;2023-11-21T14:39:52;11.20;49.90
24260;DHT22;12384;48.112;18.418;2023-11-21T14:42:21;11.00;50.00
24260;DHT22;12384;48.112;18.418;2023-11-21T14:44:52;10.80;50.20
24260;DHT22;12384;48.112;18.418;2023-11-21T14:47:25;10.60;50.40
24260;DHT22;12384;48.112;18.418;2023-11-21T14:49:55;10.40;50.60
24260;DHT22;12384;48.112;18.418;2023-11-21T14:52:27;10.20;50.70
24260;DHT22;12384;48.112;18.418;2023-11-21T14:55:03;10.00;51.00
24260;DHT22;12384;48.112;18.418;2023-11-21T14:57:46;9.80;52.10
24260;DHT22;12384;48.112;18.418;2023-11-21T15:00:18;9.60;52.40
24260;DHT22;12384;48.112;18.418;2023-11-21T15:03:06;9.50;52.60
24260;DHT22;12384;48.112;18.418;2023-11-21T15:05:37;9.30;52.80
24260;DHT22;12384;48.112;18.418;2023-11-21T15:08:06;9.10;52.90
24260;DHT22;12384;48.112;18.418;2023-11-21T15:10:48;9.00;53.10
24260;DHT22;12384;48.112;18.418;2023-11-21T15:13:21;8.80;53.30
24260;DHT22;12384;48.112;18.418;2023-11-21T15:15:51;8.70;53.50
24260;DHT22;12384;48.112;18.418;2023-11-21T15:18:23;8.60;53.80
24260;DHT22;12384;48.112;18.418;2023-11-21T15:20:52;8.40;53.90
24260;DHT22;12384;48.112;18.418;2023-11-21T15:23:22;8.30;54.00
24260;DHT22;12384;48.112;18.418;2023-11-21T15:25:50;8.20;54.20
24260;DHT22;12384;48.112;18.418;2023-11-21T15:28:20;8.10;54.50
24260;DHT22;12384;48.112;18.418;2023-11-21T15:30:48;8.00;54.70
24260;DHT22;12384;48.112;18.418;2023-11-21T15:33:19;7.90;55.10
24260;DHT22;12384;48.112;18.418;2023-11-21T15:35:48;7.80;55.30
24260;DHT22;12384;48.112;18.418;2023-11-21T15:38:17;7.70;55.40
24260;DHT22;12384;48.112;18.418;2023-11-21T15:40:47;7.60;55.60
24260;DHT22;12384;48.112;18.418;2023-11-21T15:43:16;7.50;55.80
24260;DHT22;12384;48.112;18.418;2023-11-21T15:45:47;7.50;55.80
24260;DHT22;12384;48.112;18.418;2023-11-21T15:48:15;7.40;55.80
24260;DHT22;12384;48.112;18.418;2023-11-21T15:50:45;7.30;55.80
24260;DHT22;12384;48.112;18.418;2023-11-21T15:53:15;7.20;56.00